sensor_id;sensor_type;location;lat;lon;timestamp;temperature;humidity
5226;DHT22;2632;51.666;7.146;2023-10-13T00:00:40;17.50;99.90
5226;DHT22;2632;51.666;7.146;2023-10-13T00:03:08;17.50;99.90
5226;DHT22;2632;51.666;7.146;2023-10-13T00:05:45;17.50;99.90
5226;DHT22;2632;51.666;7.146;2023-10-13T00:08:12;17.50;99.90
5226;DHT22;2632;51.666;7.146;2023-10-13T00:10:39;17.50;99.90
5226;DHT22;2632;51.666;7.146;2023-10-13T00:13:06;17.50;99.90
5226;DHT22;2632;51.666;7.146;2023-10-13T00:15:47;17.40;99.90
5226;DHT22;2632;51.666;7.146;2023-10-13T00:18:27;17.40;99.90
5226;DHT22;2632;51.666;7.146;2023-10-13T00:21:00;17.50;99.90
5226;DHT22;2632;51.666;7.146;2023-10-13T00:23:27;17.50;99.90
5226;DHT22;2632;51.666;7.146;2023-10-13T00:25:54;17.50;99.90
5226;DHT22;2632;51.666;7.146;2023-10-13T00:28:26;17.50;99.90
5226;DHT22;2632;51.666;7.146;2023-10-13T00:31:02;17.50;99.90
5226;DHT22;2632;51.666;7.146;2023-10-13T00:33:38;17.50;99.90
5226;DHT22;2632;51.666;7.146;2023-10-13T00:36:05;17.50;99.90
5226;DHT22;2632;51.666;7.146;2023-10-13T00:38:34;17.50;99.90
5226;DHT22;2632;51.666;7.146;2023-10-13T00:41:01;17.50;99.90
5226;DHT22;2632;51.666;7.146;2023-10-13T00:43:45;17.50;99.90
5226;DHT22;2632;51.666;7.146;2023-10-13T00:46:34;17.50;99.90
5226;DHT22;2632;51.666;7.146;2023-10-13T00:49:03;17.50;99.90
5226;DHT22;2632;51.666;7.146;2023-10-13T00:51:31;17.50;99.90
5226;DHT22;2632;51.666;7.146;2023-10-13T00:54:05;17.50;99.90
5226;DHT22;2632;51.666;7.146;2023-10-13T00:56:41;17.50;99.90
5226;DHT22;2632;51.666;7.146;2023-10-13T00:59:30;17.50;99.90
5226;DHT22;2632;51.666;7.146;2023-10-13T01:02:01;17.50;99.90
5226;DHT22;2632;51.666;7.146;2023-10-13T01:04:48;17.50;99.90
5226;DHT22;2632;51.666;7.146;2023-10-13T01:07:15;17.40;99.90
5226;DHT22;2632;51.666;7.146;2023-10-13T01:09:49;17.50;99.90
5226;DHT22;2632;51.666;7.146;2023-10-13T01:12:16;17.40;99.90
5226;DHT22;2632;51.666;7.146;2023-10-13T01:14:42;17.50;99.90
5226;DHT22;2632;51.666;7.146;2023-10-13T01:17:10;17.50;99.90
5226;DHT22;2632;51.666;7.146;2023-10-13T01:19:37;17.50;99.90
5226;DHT22;2632;51.666;7.146;2023-10-13T01:22:12;17.50;99.90
5226;DHT22;2632;51.666;7.146;2023-10-13T01:24:38;17.50;99.90
5226;DHT22;2632;51.666;7.146;2023-10-13T01:27:07;17.50;99.90
5226;DHT22;2632;51.666;7.146;2023-10-13T01:29:47;17.50;99.90
5226;DHT22;2632;51.666;7.146;2023-10-13T01:32:24;17.50;99.90
5226;DHT22;2632;51.666;7.146;2023-10-13T01:34:51;17.50;99.90
5226;DHT22;2632;51.666;7.146;2023-10-13T01:37:22;17.50;99.90
5226;DHT22;2632;51.666;7.146;2023-10-13T01:39:49;17.50;99.90
5226;DHT22;2632;51.666;7.146;2023-10-13T01:42:17;17.50;99.90
5226;DHT22;2632;51.666;7.146;2023-10-13T01:44:48;17.50;99.90
5226;DHT22;2632;51.666;7.146;2023-10-13T01:47:14;17.50;99.90
5226;DHT22;2632;51.666;7.146;2023-10-13T01:49:43;17.50;99.90
5226;DHT22;2632;51.666;7.146;2023-10-13T01:52:14;17.50;99.90
5226;DHT22;2632;51.666;7.146;2023-10-13T01:54:47;17.50;99.90
5226;DHT22;2632;51.666;7.146;2023-10-13T01:57:17;17.50;99.90
5226;DHT22;2632;51.666;7.146;2023-10-13T01:59:50;17.50;99.90
5226;DHT22;2632;51.666;7.146;2023-10-13T02:02:17;17.50;99.90
5226;DHT22;2632;51.666;7.146;2023-10-13T02:04:55;17.50;99.90
5226;DHT22;2632;51.666;7.146;2023-10-13T02:07:23;17.50;99.90
5226;DHT22;2632;51.666;7.146;2023-10-13T02:09:57;17.50;99.90
5226;DHT22;2632;51.666;7.146;2023-10-13T02:12:23;17.50;99.90
5226;DHT22;2632;51.666;7.146;2023-10-13T02:14:55;17.50;99.90
5226;DHT22;2632;51.666;7.146;2023-10-13T02:17:22;17.50;99.90
5226;DHT22;2632;51.666;7.146;2023-10-13T02:19:53;17.50;99.90
5226;DHT22;2632;51.666;7.146;2023-10-13T02:22:21;17.50;99.90
5226;DHT22;2632;51.666;7.146;2023-10-13T02:24:55;17.50;99.90
5226;DHT22;2632;51.666;7.146;2023-10-13T02:27:28;17.50;99.90
5226;DHT22;2632;51.666;7.146;2023-10-13T02:29:55;17.50;99.90
5226;DHT22;2632;51.666;7.146;2023-10-13T02:32:27;17.50;99.90
5226;DHT22;2632;51.666;7.146;2023-10-13T02:34:56;17.50;99.90
5226;DHT22;2632;51.666;7.146;2023-10-13T02:37:32;17.50;99.90
5226;DHT22;2632;51.666;7.146;2023-10-13T02:39:59;17.50;99.90
5226;DHT22;2632;51.666;7.146;2023-10-13T02:42:26;17.60;99.90
5226;DHT22;2632;51.666;7.146;2023-10-13T02:44:53;17.60;99.90
5226;DHT22;2632;51.666;7.146;2023-10-13T02:47:22;17.50;99.90
5226;DHT22;2632;51.666;7.146;2023-10-13T02:49:51;17.50;99.90
5226;DHT22;2632;51.666;7.146;2023-10-13T02:52:17;17.60;99.90
5226;DHT22;2632;51.666;7.146;2023-10-13T02:54:44;17.60;99.90
5226;DHT22;2632;51.666;7.146;2023-10-13T02:57:17;17.60;99.90
5226;DHT22;2632;51.666;7.146;2023-10-13T02:59:45;17.60;99.90
5226;DHT22;2632;51.666;7.146;2023-10-13T03:02:22;17.60;99.90
5226;DHT22;2632;51.666;7.146;2023-10-13T03:04:57;17.60;99.90
5226;DHT22;2632;51.666;7.146;2023-10-13T03:07:38;17.60;99.90
5226;DHT22;2632;51.666;7.146;2023-10-13T03:10:09;17.60;99.90
5226;DHT22;2632;51.666;7.146;2023-10-13T03:12:38;17.60;99.90
5226;DHT22;2632;51.666;7.146;2023-10-13T03:15:05;17.60;99.90
5226;DHT22;2632;51.666;7.146;2023-10-13T03:17:45;17.60;99.90
5226;DHT22;2632;51.666;7.146;2023-10-13T03:20:14;17.60;99.90
5226;DHT22;2632;51.666;7.146;2023-10-13T03:22:43;17.60;99.90
5226;DHT22;2632;51.666;7.146;2023-10-13T03:25:13;17.60;99.90
5226;DHT22;2632;51.666;7.146;2023-10-13T03:27:48;17.60;99.90
5226;DHT22;2632;51.666;7.146;2023-10-13T03:30:28;17.60;99.90
5226;DHT22;2632;51.666;7.146;2023-10-13T03:33:03;17.60;99.90
5226;DHT22;2632;51.666;7.146;2023-10-13T03:35:35;17.60;99.90
5226;DHT22;2632;51.666;7.146;2023-10-13T03:38:06;17.60;99.90
5226;DHT22;2632;51.666;7.146;2023-10-13T03:40:53;17.60;99.90
5226;DHT22;2632;51.666;7.146;2023-10-13T03:43:33;17.60;99.90
5226;DHT22;2632;51.666;7.146;2023-10-13T03:46:11;17.60;99.90
5226;DHT22;2632;51.666;7.146;2023-10-13T03:48:38;17.60;99.90
5226;DHT22;2632;51.666;7.146;2023-10-13T03:51:19;17.60;99.90
5226;DHT22;2632;51.666;7.146;2023-10-13T03:53:46;17.60;99.90
5226;DHT22;2632;51.666;7.146;2023-10-13T03:56:28;17.60;99.90
5226;DHT22;2632;51.666;7.146;2023-10-13T03:58:59;17.60;99.90
5226;DHT22;2632;51.666;7.146;2023-10-13T04:01:33;17.60;99.90
5226;DHT22;2632;51.666;7.146;2023-10-13T04:04:18;17.60;99.90
5226;DHT22;2632;51.666;7.146;2023-10-13T04:07:04;17.60;99.90
5226;DHT22;2632;51.666;7.146;2023-10-13T04:09:37;17.60;99.90
5226;DHT22;2632;51.666;7.146;2023-10-13T04:12:21;17.60;99.90
5226;DHT22;2632;51.666;7.146;2023-10-13T04:15:08;16.90;99.90
5226;DHT22;2632;51.666;7.146;2023-10-13T04:17:49;17.50;99.90
5226;DHT22;2632;51.666;7.146;2023-10-13T04:20:17;17.50;99.90
5226;DHT22;2632;51.666;7.146;2023-10-13T04:22:54;17.50;99.90
5226;DHT22;2632;51.666;7.146;2023-10-13T04:25:41;17.50;99.90
5226;DHT22;2632;51.666;7.146;2023-10-13T04:28:13;17.60;99.90
5226;DHT22;2632;51.666;7.146;2023-10-13T04:33:25;17.50;99.90
5226;DHT22;2632;51.666;7.146;2023-10-13T04:38:28;17.50;99.90
5226;DHT22;2632;51.666;7.146;2023-10-13T04:41:00;17.50;99.90
5226;DHT22;2632;51.666;7.146;2023-10-13T04:43:28;17.50;99.90
5226;DHT22;2632;51.666;7.146;2023-10-13T04:46:21;17.50;99.90
5226;DHT22;2632;51.666;7.146;2023-10-13T04:49:21;17.50;99.90
5226;DHT22;2632;51.666;7.146;2023-10-13T04:52:06;17.50;99.90
5226;DHT22;2632;51.666;7.146;2023-10-13T04:54:40;17.50;99.90
5226;DHT22;2632;51.666;7.146;2023-10-13T04:57:22;17.50;99.90
5226;DHT22;2632;51.666;7.146;2023-10-13T04:59:51;17.50;99.90
5226;DHT22;2632;51.666;7.146;2023-10-13T05:02:33;17.50;99.90
5226;DHT22;2632;51.666;7.146;2023-10-13T05:05:04;17.50;99.90
5226;DHT22;2632;51.666;7.146;2023-10-13T05:07:33;17.50;99.90
5226;DHT22;2632;51.666;7.146;2023-10-13T05:10:18;17.50;99.90
5226;DHT22;2632;51.666;7.146;2023-10-13T05:13:04;17.40;99.90
5226;DHT22;2632;51.666;7.146;2023-10-13T05:15:50;17.50;99.90
5226;DHT22;2632;51.666;7.146;2023-10-13T05:18:36;17.50;99.90
5226;DHT22;2632;51.666;7.146;2023-10-13T05:21:22;17.50;99.90
5226;DHT22;2632;51.666;7.146;2023-10-13T05:24:07;17.50;99.90
5226;DHT22;2632;51.666;7.146;2023-10-13T05:26:53;17.50;99.90
5226;DHT22;2632;51.666;7.146;2023-10-13T05:29:39;17.50;99.90
5226;DHT22;2632;51.666;7.146;2023-10-13T05:32:25;17.50;99.90
5226;DHT22;2632;51.666;7.146;2023-10-13T05:35:11;17.60;99.90
5226;DHT22;2632;51.666;7.146;2023-10-13T05:37:57;17.60;99.90
5226;DHT22;2632;51.666;7.146;2023-10-13T05:41:00;17.60;99.90
5226;DHT22;2632;51.666;7.146;2023-10-13T05:43:51;17.60;99.90
5226;DHT22;2632;51.666;7.146;2023-10-13T05:46:36;17.60;99.90
5226;DHT22;2632;51.666;7.146;2023-10-13T05:49:07;17.60;99.90
5226;DHT22;2632;51.666;7.146;2023-10-13T05:51:44;17.60;99.90
5226;DHT22;2632;51.666;7.146;2023-10-13T05:54:33;17.80;99.90
5226;DHT22;2632;51.666;7.146;2023-10-13T05:57:18;17.60;99.90
5226;DHT22;2632;51.666;7.146;2023-10-13T06:00:04;17.70;99.90
5226;DHT22;2632;51.666;7.146;2023-10-13T06:02:50;17.70;99.90
5226;DHT22;2632;51.666;7.146;2023-10-13T06:05:35;17.70;99.90
5226;DHT22;2632;51.666;7.146;2023-10-13T06:08:20;17.70;99.90
5226;DHT22;2632;51.666;7.146;2023-10-13T06:11:06;17.70;99.90
5226;DHT22;2632;51.666;7.146;2023-10-13T06:13:51;17.80;99.90
5226;DHT22;2632;51.666;7.146;2023-10-13T06:16:37;17.70;99.90
5226;DHT22;2632;51.666;7.146;2023-10-13T06:19:23;17.80;99.90
5226;DHT22;2632;51.666;7.146;2023-10-13T06:22:08;17.80;99.90
5226;DHT22;2632;51.666;7.146;2023-10-13T06:24:53;17.80;99.90
5226;DHT22;2632;51.666;7.146;2023-10-13T06:27:39;17.80;99.90
5226;DHT22;2632;51.666;7.146;2023-10-13T06:30:24;17.90;99.90
5226;DHT22;2632;51.666;7.146;2023-10-13T06:32:51;17.90;99.90
5226;DHT22;2632;51.666;7.146;2023-10-13T06:35:20;17.90;99.90
5226;DHT22;2632;51.666;7.146;2023-10-13T06:37:52;17.90;99.90
5226;DHT22;2632;51.666;7.146;2023-10-13T06:40:20;17.90;99.90
5226;DHT22;2632;51.666;7.146;2023-10-13T06:42:53;17.90;99.90
5226;DHT22;2632;51.666;7.146;2023-10-13T06:45:25;17.90;99.90
5226;DHT22;2632;51.666;7.146;2023-10-13T06:47:54;17.90;99.90
5226;DHT22;2632;51.666;7.146;2023-10-13T06:50:22;17.90;99.90
5226;DHT22;2632;51.666;7.146;2023-10-13T06:52:51;17.90;99.90
5226;DHT22;2632;51.666;7.146;2023-10-13T06:55:22;17.90;99.90
5226;DHT22;2632;51.666;7.146;2023-10-13T06:58:02;18.00;99.90
5226;DHT22;2632;51.666;7.146;2023-10-13T07:00:29;18.00;99.90
5226;DHT22;2632;51.666;7.146;2023-10-13T07:03:02;18.00;99.90
5226;DHT22;2632;51.666;7.146;2023-10-13T07:05:58;18.00;99.90
5226;DHT22;2632;51.666;7.146;2023-10-13T07:08:26;18.10;99.90
5226;DHT22;2632;51.666;7.146;2023-10-13T07:10:54;18.10;99.90
5226;DHT22;2632;51.666;7.146;2023-10-13T07:13:32;18.10;99.90
5226;DHT22;2632;51.666;7.146;2023-10-13T07:16:07;18.20;99.90
5226;DHT22;2632;51.666;7.146;2023-10-13T07:18:55;18.30;99.90
5226;DHT22;2632;51.666;7.146;2023-10-13T07:21:22;18.30;99.90
5226;DHT22;2632;51.666;7.146;2023-10-13T07:23:57;18.40;99.90
5226;DHT22;2632;51.666;7.146;2023-10-13T07:26:38;18.50;99.90
5226;DHT22;2632;51.666;7.146;2023-10-13T07:29:10;18.80;99.90
5226;DHT22;2632;51.666;7.146;2023-10-13T07:31:37;18.90;99.90
5226;DHT22;2632;51.666;7.146;2023-10-13T07:34:11;18.90;99.90
5226;DHT22;2632;51.666;7.146;2023-10-13T07:36:58;19.00;99.90
5226;DHT22;2632;51.666;7.146;2023-10-13T07:39:29;19.00;99.90
5226;DHT22;2632;51.666;7.146;2023-10-13T07:42:01;19.00;99.90
5226;DHT22;2632;51.666;7.146;2023-10-13T07:44:32;19.00;99.90
5226;DHT22;2632;51.666;7.146;2023-10-13T07:47:00;19.10;99.90
5226;DHT22;2632;51.666;7.146;2023-10-13T07:49:33;19.10;99.90
5226;DHT22;2632;51.666;7.146;2023-10-13T07:52:09;19.20;99.90
5226;DHT22;2632;51.666;7.146;2023-10-13T07:54:53;19.30;99.90
5226;DHT22;2632;51.666;7.146;2023-10-13T07:57:26;19.50;99.90
5226;DHT22;2632;51.666;7.146;2023-10-13T07:59:56;19.80;99.90
5226;DHT22;2632;51.666;7.146;2023-10-13T08:03:01;19.90;99.90
5226;DHT22;2632;51.666;7.146;2023-10-13T08:05:44;20.00;99.90
5226;DHT22;2632;51.666;7.146;2023-10-13T08:08:25;20.10;99.90
5226;DHT22;2632;51.666;7.146;2023-10-13T08:11:12;20.50;99.90
5226;DHT22;2632;51.666;7.146;2023-10-13T08:13:58;20.80;99.90
5226;DHT22;2632;51.666;7.146;2023-10-13T08:16:39;20.60;99.90
5226;DHT22;2632;51.666;7.146;2023-10-13T08:19:14;20.50;99.90
5226;DHT22;2632;51.666;7.146;2023-10-13T08:21:46;20.70;99.90
5226;DHT22;2632;51.666;7.146;2023-10-13T08:24:18;21.10;99.90
5226;DHT22;2632;51.666;7.146;2023-10-13T08:26:53;20.90;99.90
5226;DHT22;2632;51.666;7.146;2023-10-13T08:29:38;20.60;99.90
5226;DHT22;2632;51.666;7.146;2023-10-13T08:32:17;20.70;99.90
5226;DHT22;2632;51.666;7.146;2023-10-13T08:34:57;21.90;99.90
5226;DHT22;2632;51.666;7.146;2023-10-13T08:37:24;23.50;99.90
5226;DHT22;2632;51.666;7.146;2023-10-13T08:39:56;23.10;99.90
5226;DHT22;2632;51.666;7.146;2023-10-13T08:42:42;22.10;99.90
5226;DHT22;2632;51.666;7.146;2023-10-13T08:45:14;22.10;99.90
5226;DHT22;2632;51.666;7.146;2023-10-13T08:48:09;21.80;99.90
5226;DHT22;2632;51.666;7.146;2023-10-13T08:50:44;21.40;99.90
5226;DHT22;2632;51.666;7.146;2023-10-13T08:56:02;21.50;99.90
5226;DHT22;2632;51.666;7.146;2023-10-13T08:58:34;21.60;99.90
5226;DHT22;2632;51.666;7.146;2023-10-13T09:01:27;21.30;99.90
5226;DHT22;2632;51.666;7.146;2023-10-13T09:04:10;21.30;99.90
5226;DHT22;2632;51.666;7.146;2023-10-13T09:06:50;21.60;99.90
5226;DHT22;2632;51.666;7.146;2023-10-13T09:12:29;21.70;99.90
5226;DHT22;2632;51.666;7.146;2023-10-13T09:15:04;21.90;99.90
5226;DHT22;2632;51.666;7.146;2023-10-13T09:17:40;22.30;99.90
5226;DHT22;2632;51.666;7.146;2023-10-13T09:20:09;23.50;99.90
5226;DHT22;2632;51.666;7.146;2023-10-13T09:22:52;24.70;97.30
5226;DHT22;2632;51.666;7.146;2023-10-13T09:25:31;24.50;96.90
5226;DHT22;2632;51.666;7.146;2023-10-13T09:28:12;24.70;97.60
5226;DHT22;2632;51.666;7.146;2023-10-13T09:30:45;24.10;98.00
5226;DHT22;2632;51.666;7.146;2023-10-13T09:33:12;24.50;96.40
5226;DHT22;2632;51.666;7.146;2023-10-13T09:35:45;24.60;96.90
5226;DHT22;2632;51.666;7.146;2023-10-13T09:38:18;26.10;94.80
5226;DHT22;2632;51.666;7.146;2023-10-13T09:40:45;26.00;93.80
5226;DHT22;2632;51.666;7.146;2023-10-13T09:45:47;25.50;93.50
5226;DHT22;2632;51.666;7.146;2023-10-13T09:48:37;25.60;93.90
5226;DHT22;2632;51.666;7.146;2023-10-13T09:51:12;26.90;92.20
5226;DHT22;2632;51.666;7.146;2023-10-13T09:53:41;28.30;89.60
5226;DHT22;2632;51.666;7.146;2023-10-13T09:56:42;26.90;90.80
5226;DHT22;2632;51.666;7.146;2023-10-13T09:59:22;27.10;90.40
5226;DHT22;2632;51.666;7.146;2023-10-13T10:01:51;27.30;90.20
5226;DHT22;2632;51.666;7.146;2023-10-13T10:04:24;27.40;89.80
5226;DHT22;2632;51.666;7.146;2023-10-13T10:06:56;26.60;89.50
5226;DHT22;2632;51.666;7.146;2023-10-13T10:09:31;25.00;92.10
5226;DHT22;2632;51.666;7.146;2023-10-13T10:12:05;25.00;92.50
5226;DHT22;2632;51.666;7.146;2023-10-13T10:15:05;25.60;92.20
5226;DHT22;2632;51.666;7.146;2023-10-13T10:17:43;26.00;90.90
5226;DHT22;2632;51.666;7.146;2023-10-13T10:20:10;25.80;91.40
5226;DHT22;2632;51.666;7.146;2023-10-13T10:22:57;25.80;91.20
5226;DHT22;2632;51.666;7.146;2023-10-13T10:25:33;25.80;92.20
5226;DHT22;2632;51.666;7.146;2023-10-13T10:28:02;26.00;90.80
5226;DHT22;2632;51.666;7.146;2023-10-13T10:30:32;27.60;88.90
5226;DHT22;2632;51.666;7.146;2023-10-13T10:33:05;28.80;84.60
5226;DHT22;2632;51.666;7.146;2023-10-13T10:35:41;28.90;80.30
5226;DHT22;2632;51.666;7.146;2023-10-13T10:38:11;28.50;81.70
5226;DHT22;2632;51.666;7.146;2023-10-13T10:40:51;26.70;86.10
5226;DHT22;2632;51.666;7.146;2023-10-13T10:43:18;25.90;89.00
5226;DHT22;2632;51.666;7.146;2023-10-13T10:45:59;25.30;90.40
5226;DHT22;2632;51.666;7.146;2023-10-13T10:48:26;24.90;90.80
5226;DHT22;2632;51.666;7.146;2023-10-13T10:50:58;24.90;90.90
5226;DHT22;2632;51.666;7.146;2023-10-13T10:53:33;24.70;91.80
5226;DHT22;2632;51.666;7.146;2023-10-13T10:56:06;24.30;92.50
5226;DHT22;2632;51.666;7.146;2023-10-13T10:58:46;24.30;92.40
5226;DHT22;2632;51.666;7.146;2023-10-13T11:01:13;24.20;93.20
5226;DHT22;2632;51.666;7.146;2023-10-13T11:03:52;24.40;93.00
5226;DHT22;2632;51.666;7.146;2023-10-13T11:06:21;25.00;92.30
5226;DHT22;2632;51.666;7.146;2023-10-13T11:09:00;25.40;91.40
5226;DHT22;2632;51.666;7.146;2023-10-13T11:11:30;25.40;91.80
5226;DHT22;2632;51.666;7.146;2023-10-13T11:14:02;25.30;91.50
5226;DHT22;2632;51.666;7.146;2023-10-13T11:16:47;25.30;91.30
5226;DHT22;2632;51.666;7.146;2023-10-13T11:19:17;24.80;92.30
5226;DHT22;2632;51.666;7.146;2023-10-13T11:21:47;24.50;92.60
5226;DHT22;2632;51.666;7.146;2023-10-13T11:24:14;24.30;93.60
5226;DHT22;2632;51.666;7.146;2023-10-13T11:26:44;24.20;93.40
5226;DHT22;2632;51.666;7.146;2023-10-13T11:29:19;24.00;93.40
5226;DHT22;2632;51.666;7.146;2023-10-13T11:31:47;24.00;94.00
5226;DHT22;2632;51.666;7.146;2023-10-13T11:34:20;23.90;93.80
5226;DHT22;2632;51.666;7.146;2023-10-13T11:36:47;23.80;94.60
5226;DHT22;2632;51.666;7.146;2023-10-13T11:39:14;23.90;93.40
5226;DHT22;2632;51.666;7.146;2023-10-13T11:41:45;24.10;93.20
5226;DHT22;2632;51.666;7.146;2023-10-13T11:44:20;24.60;92.60
5226;DHT22;2632;51.666;7.146;2023-10-13T11:46:47;25.50;90.80
5226;DHT22;2632;51.666;7.146;2023-10-13T11:49:14;26.30;90.30
5226;DHT22;2632;51.666;7.146;2023-10-13T11:51:47;26.20;88.20
5226;DHT22;2632;51.666;7.146;2023-10-13T11:54:18;26.10;88.10
5226;DHT22;2632;51.666;7.146;2023-10-13T11:56:47;26.40;88.50
5226;DHT22;2632;51.666;7.146;2023-10-13T11:59:14;26.10;88.10
5226;DHT22;2632;51.666;7.146;2023-10-13T12:01:49;26.00;88.90
5226;DHT22;2632;51.666;7.146;2023-10-13T12:04:34;26.10;87.20
5226;DHT22;2632;51.666;7.146;2023-10-13T12:07:22;25.80;89.60
5226;DHT22;2632;51.666;7.146;2023-10-13T12:10:12;25.70;88.50
5226;DHT22;2632;51.666;7.146;2023-10-13T12:12:43;25.90;88.00
5226;DHT22;2632;51.666;7.146;2023-10-13T12:15:12;25.70;88.40
5226;DHT22;2632;51.666;7.146;2023-10-13T12:18:04;25.90;85.50
5226;DHT22;2632;51.666;7.146;2023-10-13T12:20:31;26.10;87.70
5226;DHT22;2632;51.666;7.146;2023-10-13T12:23:02;26.10;86.10
5226;DHT22;2632;51.666;7.146;2023-10-13T12:25:42;26.50;85.90
5226;DHT22;2632;51.666;7.146;2023-10-13T12:28:23;27.30;83.70
5226;DHT22;2632;51.666;7.146;2023-10-13T12:30:50;28.60;78.50
5226;DHT22;2632;51.666;7.146;2023-10-13T12:33:20;27.90;79.40
5226;DHT22;2632;51.666;7.146;2023-10-13T12:35:57;27.30;80.10
5226;DHT22;2632;51.666;7.146;2023-10-13T12:38:42;26.60;82.40
5226;DHT22;2632;51.666;7.146;2023-10-13T12:41:15;25.90;82.60
5226;DHT22;2632;51.666;7.146;2023-10-13T12:44:02;25.30;84.90
5226;DHT22;2632;51.666;7.146;2023-10-13T12:46:47;25.20;86.50
5226;DHT22;2632;51.666;7.146;2023-10-13T12:49:33;25.20;85.80
5226;DHT22;2632;51.666;7.146;2023-10-13T12:52:09;25.20;87.30
5226;DHT22;2632;51.666;7.146;2023-10-13T12:54:54;25.50;86.30
5226;DHT22;2632;51.666;7.146;2023-10-13T12:57:24;25.60;84.30
5226;DHT22;2632;51.666;7.146;2023-10-13T12:59:51;25.70;84.50
5226;DHT22;2632;51.666;7.146;2023-10-13T13:02:21;26.10;83.50
5226;DHT22;2632;51.666;7.146;2023-10-13T13:04:48;26.70;82.10
5226;DHT22;2632;51.666;7.146;2023-10-13T13:07:20;26.20;82.20
5226;DHT22;2632;51.666;7.146;2023-10-13T13:09:47;25.50;84.00
5226;DHT22;2632;51.666;7.146;2023-10-13T13:12:14;25.30;85.10
5226;DHT22;2632;51.666;7.146;2023-10-13T13:14:41;25.10;85.10
5226;DHT22;2632;51.666;7.146;2023-10-13T13:17:12;24.90;86.40
5226;DHT22;2632;51.666;7.146;2023-10-13T13:19:39;24.70;87.40
5226;DHT22;2632;51.666;7.146;2023-10-13T13:22:06;24.80;86.30
5226;DHT22;2632;51.666;7.146;2023-10-13T13:24:39;25.40;85.90
5226;DHT22;2632;51.666;7.146;2023-10-13T13:27:14;27.60;79.60
5226;DHT22;2632;51.666;7.146;2023-10-13T13:29:41;29.90;74.30
5226;DHT22;2632;51.666;7.146;2023-10-13T13:32:08;30.20;71.20
5226;DHT22;2632;51.666;7.146;2023-10-13T13:34:45;28.30;74.40
5226;DHT22;2632;51.666;7.146;2023-10-13T13:37:21;27.40;75.80
5226;DHT22;2632;51.666;7.146;2023-10-13T13:39:47;26.40;77.70
5226;DHT22;2632;51.666;7.146;2023-10-13T13:42:14;25.80;78.20
5226;DHT22;2632;51.666;7.146;2023-10-13T13:44:44;25.80;79.60
5226;DHT22;2632;51.666;7.146;2023-10-13T13:47:13;25.30;79.80
5226;DHT22;2632;51.666;7.146;2023-10-13T13:49:40;25.20;81.40
5226;DHT22;2632;51.666;7.146;2023-10-13T13:52:12;25.40;80.90
5226;DHT22;2632;51.666;7.146;2023-10-13T13:54:49;25.50;81.10
5226;DHT22;2632;51.666;7.146;2023-10-13T13:57:16;25.30;82.10
5226;DHT22;2632;51.666;7.146;2023-10-13T13:59:43;25.10;81.90
5226;DHT22;2632;51.666;7.146;2023-10-13T14:02:12;24.80;82.60
5226;DHT22;2632;51.666;7.146;2023-10-13T14:04:48;24.60;83.80
5226;DHT22;2632;51.666;7.146;2023-10-13T14:07:18;24.30;84.00
5226;DHT22;2632;51.666;7.146;2023-10-13T14:09:46;24.30;83.40
5226;DHT22;2632;51.666;7.146;2023-10-13T14:12:18;24.30;82.80
5226;DHT22;2632;51.666;7.146;2023-10-13T14:15:08;24.40;83.60
5226;DHT22;2632;51.666;7.146;2023-10-13T14:17:46;24.30;82.60
5226;DHT22;2632;51.666;7.146;2023-10-13T14:20:15;24.20;83.50
5226;DHT22;2632;51.666;7.146;2023-10-13T14:22:45;24.10;84.10
5226;DHT22;2632;51.666;7.146;2023-10-13T14:25:15;23.90;84.30
5226;DHT22;2632;51.666;7.146;2023-10-13T14:27:43;24.00;84.30
5226;DHT22;2632;51.666;7.146;2023-10-13T14:30:09;24.00;83.90
5226;DHT22;2632;51.666;7.146;2023-10-13T14:32:36;23.90;83.50
5226;DHT22;2632;51.666;7.146;2023-10-13T14:35:07;23.90;83.60
5226;DHT22;2632;51.666;7.146;2023-10-13T14:37:43;23.90;84.10
5226;DHT22;2632;51.666;7.146;2023-10-13T14:40:09;23.80;84.30
5226;DHT22;2632;51.666;7.146;2023-10-13T14:42:39;23.70;84.70
5226;DHT22;2632;51.666;7.146;2023-10-13T14:45:07;23.60;85.00
5226;DHT22;2632;51.666;7.146;2023-10-13T14:47:40;23.60;84.10
5226;DHT22;2632;51.666;7.146;2023-10-13T14:50:07;23.50;84.10
5226;DHT22;2632;51.666;7.146;2023-10-13T14:52:35;23.40;84.40
5226;DHT22;2632;51.666;7.146;2023-10-13T14:55:01;23.40;84.50
5226;DHT22;2632;51.666;7.146;2023-10-13T14:57:33;23.30;85.30
5226;DHT22;2632;51.666;7.146;2023-10-13T15:00:04;23.30;85.30
5226;DHT22;2632;51.666;7.146;2023-10-13T15:02:43;23.20;85.50
5226;DHT22;2632;51.666;7.146;2023-10-13T15:05:10;23.10;86.40
5226;DHT22;2632;51.666;7.146;2023-10-13T15:07:46;23.10;85.90
5226;DHT22;2632;51.666;7.146;2023-10-13T15:10:16;23.10;85.90
5226;DHT22;2632;51.666;7.146;2023-10-13T15:12:43;23.00;86.20
5226;DHT22;2632;51.666;7.146;2023-10-13T15:15:13;23.00;85.80
5226;DHT22;2632;51.666;7.146;2023-10-13T15:17:40;23.00;85.60
5226;DHT22;2632;51.666;7.146;2023-10-13T15:20:07;23.00;85.80
5226;DHT22;2632;51.666;7.146;2023-10-13T15:22:37;22.90;86.70
5226;DHT22;2632;51.666;7.146;2023-10-13T15:25:05;22.90;86.20
5226;DHT22;2632;51.666;7.146;2023-10-13T15:27:47;22.80;85.50
5226;DHT22;2632;51.666;7.146;2023-10-13T15:30:22;22.80;86.90
5226;DHT22;2632;51.666;7.146;2023-10-13T15:32:57;22.80;86.10
5226;DHT22;2632;51.666;7.146;2023-10-13T15:35:24;22.80;86.80
5226;DHT22;2632;51.666;7.146;2023-10-13T15:37:55;22.70;86.20
5226;DHT22;2632;51.666;7.146;2023-10-13T15:40:22;22.70;87.00
5226;DHT22;2632;51.666;7.146;2023-10-13T15:42:50;22.60;86.70
5226;DHT22;2632;51.666;7.146;2023-10-13T15:45:16;22.60;87.60
5226;DHT22;2632;51.666;7.146;2023-10-13T15:47:44;22.50;88.30
5226;DHT22;2632;51.666;7.146;2023-10-13T15:50:16;22.50;89.10
5226;DHT22;2632;51.666;7.146;2023-10-13T15:52:49;22.40;88.70
5226;DHT22;2632;51.666;7.146;2023-10-13T15:55:16;22.30;89.30
5226;DHT22;2632;51.666;7.146;2023-10-13T15:57:44;22.30;88.30
5226;DHT22;2632;51.666;7.146;2023-10-13T16:00:11;22.30;89.00
5226;DHT22;2632;51.666;7.146;2023-10-13T16:02:53;22.30;87.40
5226;DHT22;2632;51.666;7.146;2023-10-13T16:05:21;22.30;88.00
5226;DHT22;2632;51.666;7.146;2023-10-13T16:07:51;22.30;88.20
5226;DHT22;2632;51.666;7.146;2023-10-13T16:10:21;22.20;88.20
5226;DHT22;2632;51.666;7.146;2023-10-13T16:12:48;22.20;87.90
5226;DHT22;2632;51.666;7.146;2023-10-13T16:15:15;22.20;87.90
5226;DHT22;2632;51.666;7.146;2023-10-13T16:17:41;22.20;87.60
5226;DHT22;2632;51.666;7.146;2023-10-13T16:20:08;22.20;87.50
5226;DHT22;2632;51.666;7.146;2023-10-13T16:22:45;22.20;87.80
5226;DHT22;2632;51.666;7.146;2023-10-13T16:25:13;22.10;87.80
5226;DHT22;2632;51.666;7.146;2023-10-13T16:27:45;22.10;88.10
5226;DHT22;2632;51.666;7.146;2023-10-13T16:30:13;22.10;88.10
5226;DHT22;2632;51.666;7.146;2023-10-13T16:32:42;22.10;87.30
5226;DHT22;2632;51.666;7.146;2023-10-13T16:35:15;22.10;87.00
5226;DHT22;2632;51.666;7.146;2023-10-13T16:37:46;22.10;88.00
5226;DHT22;2632;51.666;7.146;2023-10-13T16:40:14;22.00;88.70
5226;DHT22;2632;51.666;7.146;2023-10-13T16:42:41;22.00;87.80
5226;DHT22;2632;51.666;7.146;2023-10-13T16:45:08;22.00;88.90
5226;DHT22;2632;51.666;7.146;2023-10-13T16:47:50;21.90;89.20
5226;DHT22;2632;51.666;7.146;2023-10-13T16:50:17;21.90;89.40
5226;DHT22;2632;51.666;7.146;2023-10-13T16:52:44;21.90;88.60
5226;DHT22;2632;51.666;7.146;2023-10-13T16:55:13;21.90;89.20
5226;DHT22;2632;51.666;7.146;2023-10-13T16:57:40;21.90;89.00
5226;DHT22;2632;51.666;7.146;2023-10-13T17:00:07;21.90;89.50